Airfield :
LOGIN :

Register | Disclaimer

   EN    FR    IT 

 










Legend :    VFR   Marginal VFR   IFR   Intensive IFR   Very Intensive IFR
Visi :
Ceiling :
>= 8 km
>= 3000ft
5 to 8 km
1000 to 3000 ft
1500m to 5 km
500 to 1000 ft
800 to 1500m
200 to 500 ft
< 800m
< 200 ft
Symbols :   Thunderstorms  Fog  Heavy snow  Heavy precipitations  Wind > 20 kt
SIGMETs :     Misc.  Thunderstorms  Icing  Turbulence  Mountain Waves  Volcanic Ashes







- Airport Elevation : 327 ft
- IATA code : BHX
- Download approach charts


EGBB - Birmingham

CURRENT METAR :
  • 180720Z 09006KT 9999 FEW023 OVC035 10/08 Q1013

EXPIRED METARs :
  • 180650Z 10005KT 080V170 9999 BKN025 OVC032 10/08 Q1013
  • 180620Z VRB03KT 9999 BKN024 OVC033 10/08 Q1013
  • 180550Z 09004KT 060V120 9999 BKN026 OVC030 10/08 Q1013
  • 180520Z 06004KT 040V100 9999 BKN034 OVC041 10/08 Q1013
  • 180450Z 09004KT 9999 BKN037 OVC045 10/08 Q1013

TAF TAF EGBB
Valid from the 18 at 06:00 until the 19 at 06:00 UTC


180505Z 1806/1906 09006KT 9999 SCT040
PROB30
TEMPO 1806/1812 8000 RA
BECMG 1809/1812 BKN014
BECMG 1812/1815 BKN008
TEMPO 1812/1824 8000 -RA
TEMPO 1817/1906 3000 DZ BR BKN004
BECMG 1818/1821 16010KT
PROB30
TEMPO 1819/1903 BKN001
ATIS : +44 121 780 0910
No reported NOTAMs for that airfield.



MET'MAP, your aeronautical weather chart ! - Copyright ORBIFLY December 2007 - Disclaimer

ORBIFLY MET'MAP TEAM :

Programming & Development : Alexandra Zaïnal
Concept & Development : Baudouin d'Aumeries
Co-Development & Prog : Marc-Olivier Méhu
Technical & hardware support : Manuel Goepfert

Contact : metmap@orbifly.com




SOURCES & CREDITS :

   NOAA